LFTW

Nîmes-Arles-Camargue Airport

Nîmes/Garons, France
TAF AMD LFTW 211400Z 2115/2215 01013KT CAVOK BECMG 2212/2214 29004KT
Issued Valid From Valid To
Jan-21 @ 14:00 UTC
(10 hours ago)
Jan-21 @ 15:00 UTC
(9 hours ago)
Jan-22 @ 15:00 UTC
(in 15 hours)
Jan-21 @ 15:00 to Jan-22 @ 12:00
TAF AMD LFTW 211400Z 2115/2215 01013KT CAVOK
Wind Visibility Clouds Conditions
10° at 13 knots 10,000+ meters
  • No significant clouds
Becoming Jan-22 @ 12:00 to Jan-22 @ 15:00
BECMG 2212/2214 29004KT
Wind Visibility Clouds Conditions
290° at 4 knots 10,000+ meters
  • No significant clouds
TAF AMD LFTW 211400Z 2115/2215 01013KT CAVOK BECMG 2212/2214 29004KT
Issued Jan-21 @ 14:00 UTC
(10 hours ago)
Valid From Jan-21 @ 15:00 UTC
(9 hours ago)
Valid To Jan-22 @ 15:00 UTC
(in 15 hours)
Jan-21 @ 15:00 - Jan-22 @ 12:00
Wind Visibility
10° at 13 knots 10,000+ meters
Clouds
  • No significant clouds
Conditions
Becoming Jan-22 @ 12:00 - Jan-22 @ 15:00
Wind Visibility
290° at 4 knots 10,000+ meters
Clouds
  • No significant clouds
Conditions